createdAt,value
2023-04-24T00:00:07.071Z,43.17
2023-04-24T00:02:35.353Z,43.23
2023-04-24T00:05:03.322Z,42.02
2023-04-24T00:07:31.246Z,43.11
2023-04-24T00:09:59.017Z,42.26
2023-04-24T00:12:27.001Z,42.34
2023-04-24T00:14:54.730Z,42.16
2023-04-24T00:17:22.133Z,42.33
2023-04-24T00:19:52.254Z,41.94
2023-04-24T00:22:21.873Z,41.55
2023-04-24T00:24:49.051Z,41.79
2023-04-24T00:27:16.522Z,41.28
2023-04-24T00:29:44.035Z,42.10
2023-04-24T00:32:12.066Z,41.25
2023-04-24T00:34:39.595Z,41.34
2023-04-24T00:37:07.111Z,40.52
2023-04-24T00:39:34.661Z,40.73
2023-04-24T00:42:02.965Z,40.80
2023-04-24T00:44:30.334Z,40.73
2023-04-24T00:46:58.803Z,40.11
2023-04-24T00:49:26.368Z,40.66
2023-04-24T00:51:54.935Z,41.24
2023-04-24T00:54:22.178Z,40.52
2023-04-24T00:56:52.406Z,40.25
2023-04-24T00:59:19.910Z,40.29
2023-04-24T01:01:47.649Z,39.98
2023-04-24T01:04:17.128Z,41.51
2023-04-24T01:06:46.041Z,41.99
2023-04-24T01:09:15.627Z,41.34
2023-04-24T01:11:44.167Z,41.53
2023-04-24T01:14:13.064Z,42.30
2023-04-24T01:16:40.456Z,42.12
2023-04-24T01:19:08.391Z,42.31
2023-04-24T01:21:39.351Z,42.96
2023-04-24T01:24:07.671Z,42.49
2023-04-24T01:26:35.360Z,42.98
2023-04-24T01:29:02.804Z,43.49
2023-04-24T01:31:31.026Z,43.19
2023-04-24T01:33:58.739Z,42.46
2023-04-24T01:36:28.351Z,42.36
2023-04-24T01:38:56.034Z,42.36
2023-04-24T01:41:23.579Z,41.94
2023-04-24T01:43:52.219Z,42.38
2023-04-24T01:46:21.069Z,42.25
2023-04-24T01:48:48.513Z,41.84
2023-04-24T01:51:15.779Z,42.05
2023-04-24T01:53:43.203Z,42.39
2023-04-24T01:56:10.781Z,42.46
2023-04-24T01:58:38.110Z,42.67
2023-04-24T02:01:07.364Z,42.22
2023-04-24T02:03:34.924Z,41.77
2023-04-24T02:06:02.553Z,42.25
2023-04-24T02:08:29.812Z,40.38
2023-04-24T02:10:57.512Z,41.15
2023-04-24T02:13:25.639Z,41.39
2023-04-24T02:15:52.904Z,42.12
2023-04-24T02:18:20.910Z,42.13
2023-04-24T02:20:48.178Z,41.85
2023-04-24T02:23:15.769Z,41.77
2023-04-24T02:25:43.082Z,42.32
2023-04-24T02:28:10.319Z,42.05
2023-04-24T02:30:37.549Z,41.38
2023-04-24T02:33:04.884Z,42.00
2023-04-24T02:35:32.219Z,41.82
2023-04-24T02:37:59.498Z,42.08
2023-04-24T02:40:26.994Z,41.67
2023-04-24T02:42:54.312Z,42.05
2023-04-24T02:45:21.663Z,41.77
2023-04-24T02:47:48.902Z,41.97
2023-04-24T02:50:16.207Z,41.30
2023-04-24T02:52:43.510Z,41.94
2023-04-24T02:55:11.028Z,41.27
2023-04-24T02:57:38.226Z,41.10
2023-04-24T03:00:08.243Z,39.51
2023-04-24T03:02:35.759Z,40.16
2023-04-24T03:05:03.556Z,43.37
2023-04-24T03:07:32.134Z,41.48
2023-04-24T03:10:00.378Z,40.72
2023-04-24T03:12:27.841Z,40.04
2023-04-24T03:14:56.016Z,39.81
2023-04-24T03:17:23.236Z,40.10
2023-04-24T03:19:50.446Z,42.77
2023-04-24T03:22:18.941Z,41.53
2023-04-24T03:24:46.199Z,39.78
2023-04-24T03:27:16.755Z,42.78
2023-04-24T03:29:56.793Z,44.01
2023-04-24T03:32:33.310Z,39.16
2023-04-24T03:35:01.465Z,39.16
2023-04-24T03:37:28.826Z,38.54
2023-04-24T03:40:12.619Z,39.73
2023-04-24T03:42:40.187Z,40.93
2023-04-24T03:45:08.538Z,39.33
2023-04-24T03:47:38.353Z,39.87
2023-04-24T03:50:07.318Z,37.77
2023-04-24T03:52:35.522Z,39.62
2023-04-24T03:55:03.917Z,40.62
2023-04-24T03:57:35.031Z,41.29
2023-04-24T04:00:12.112Z,43.22
2023-04-24T04:02:42.720Z,39.99
2023-04-24T04:05:10.957Z,41.99
2023-04-24T04:07:38.185Z,42.70
2023-04-24T04:10:08.146Z,42.38
2023-04-24T04:12:37.661Z,43.15
2023-04-24T04:15:06.986Z,42.83
2023-04-24T04:17:34.614Z,43.60
2023-04-24T04:20:02.788Z,42.94
2023-04-24T04:22:30.177Z,43.82
2023-04-24T04:24:59.645Z,44.49
2023-04-24T04:27:30.099Z,42.02
2023-04-24T04:30:05.961Z,43.40
2023-04-24T04:32:41.654Z,44.01
2023-04-24T04:35:10.452Z,44.19
2023-04-24T04:37:38.017Z,43.78
2023-04-24T04:40:24.422Z,44.34
2023-04-24T04:42:59.275Z,44.64
2023-04-24T04:45:29.723Z,44.49
2023-04-24T04:48:18.537Z,44.65
2023-04-24T04:50:46.333Z,44.98
2023-04-24T04:53:13.657Z,44.82
2023-04-24T04:55:41.051Z,44.44
2023-04-24T04:58:14.550Z,45.28
2023-04-24T05:00:42.594Z,45.23
2023-04-24T05:03:26.129Z,44.71
2023-04-24T05:05:59.758Z,44.59
2023-04-24T05:08:28.050Z,43.92
2023-04-24T05:10:56.551Z,44.14
2023-04-24T05:13:38.233Z,44.58
2023-04-24T05:16:11.069Z,44.56
2023-04-24T05:18:38.929Z,48.26
2023-04-24T05:21:08.006Z,45.91
2023-04-24T05:23:36.164Z,44.21
2023-04-24T05:26:05.102Z,43.07
2023-04-24T05:28:34.209Z,42.03
2023-04-24T05:31:07.572Z,43.23
2023-04-24T05:33:35.657Z,42.58
2023-04-24T05:36:03.058Z,41.27
2023-04-24T05:38:30.387Z,41.48
2023-04-24T05:40:57.763Z,42.07
2023-04-24T05:43:25.105Z,42.78
2023-04-24T05:45:52.584Z,39.90
2023-04-24T05:48:19.841Z,40.99
2023-04-24T05:50:49.015Z,40.71
2023-04-24T05:53:16.465Z,41.51
2023-04-24T05:55:43.952Z,41.47
2023-04-24T05:58:11.840Z,38.29
2023-04-24T06:00:42.488Z,38.93
2023-04-24T06:03:10.489Z,40.21
2023-04-24T06:05:37.975Z,40.95
2023-04-24T06:08:05.766Z,40.43
2023-04-24T06:10:37.036Z,40.87
2023-04-24T06:13:05.128Z,41.41
2023-04-24T06:15:34.489Z,40.91
2023-04-24T06:18:11.555Z,40.70
2023-04-24T06:20:40.620Z,39.81
2023-04-24T06:23:10.325Z,43.25
2023-04-24T06:25:38.713Z,42.22
2023-04-24T06:28:06.167Z,38.78
2023-04-24T06:30:33.393Z,42.00
2023-04-24T06:33:09.225Z,39.34
2023-04-24T06:35:46.462Z,39.36
2023-04-24T06:38:13.735Z,38.64
2023-04-24T06:40:41.274Z,37.33
2023-04-24T06:43:08.484Z,37.97
2023-04-24T06:45:35.818Z,36.21
2023-04-24T06:48:03.201Z,37.29
2023-04-24T06:50:30.467Z,35.84
2023-04-24T06:52:57.807Z,36.74
2023-04-24T06:55:25.062Z,37.36
2023-04-24T06:57:52.281Z,39.49
2023-04-24T07:00:19.865Z,36.95
2023-04-24T07:02:47.097Z,36.98
2023-04-24T07:05:16.677Z,36.04
2023-04-24T07:07:44.204Z,36.95
2023-04-24T07:10:11.677Z,36.13
2023-04-24T07:12:39.021Z,37.56
2023-04-24T07:15:08.933Z,39.30
2023-04-24T07:17:36.780Z,38.57
2023-04-24T07:20:05.260Z,40.55
2023-04-24T07:22:32.719Z,40.23
2023-04-24T07:24:59.956Z,40.82
2023-04-24T07:27:27.327Z,41.05
2023-04-24T07:29:54.846Z,41.20
2023-04-24T07:32:22.168Z,38.76
2023-04-24T07:34:49.464Z,39.52
2023-04-24T07:37:16.822Z,43.70
2023-04-24T07:39:44.338Z,41.93
2023-04-24T07:42:11.866Z,40.03
2023-04-24T07:44:39.040Z,39.94
2023-04-24T07:47:06.426Z,41.40
2023-04-24T07:49:35.935Z,40.00
2023-04-24T07:52:03.661Z,43.74
2023-04-24T07:54:31.222Z,39.73
2023-04-24T07:56:58.443Z,41.50
2023-04-24T07:59:25.918Z,41.53
2023-04-24T08:01:53.171Z,42.09
2023-04-24T08:04:20.538Z,42.56
2023-04-24T08:06:49.508Z,42.89
2023-04-24T08:09:16.752Z,41.14
2023-04-24T08:11:44.775Z,45.28
2023-04-24T08:14:13.614Z,42.95
2023-04-24T08:16:41.056Z,44.29
2023-04-24T08:19:08.506Z,44.95
2023-04-24T08:21:35.736Z,44.40
2023-04-24T08:24:06.196Z,45.92
2023-04-24T08:26:33.373Z,54.57
2023-04-24T08:29:00.659Z,45.17
2023-04-24T08:31:28.082Z,45.36
2023-04-24T08:33:55.404Z,51.07
2023-04-24T08:36:26.491Z,50.72
2023-04-24T08:39:00.564Z,54.00
2023-04-24T08:41:28.909Z,53.69
2023-04-24T08:43:59.146Z,47.65
2023-04-24T08:46:27.160Z,45.56
2023-04-24T08:48:54.639Z,48.01
2023-04-24T08:51:22.518Z,47.22
2023-04-24T08:53:50.515Z,46.12
2023-04-24T08:56:18.354Z,54.83
2023-04-24T08:58:46.397Z,59.83
2023-04-24T09:01:14.464Z,66.28
2023-04-24T09:03:42.269Z,57.25
2023-04-24T09:06:11.674Z,55.69
2023-04-24T09:08:40.933Z,56.74
2023-04-24T09:11:09.889Z,64.42
2023-04-24T09:13:37.701Z,66.25
2023-04-24T09:16:05.532Z,64.25
2023-04-24T09:18:33.058Z,68.68
2023-04-24T09:21:10.290Z,59.17
2023-04-24T09:23:37.608Z,57.56
2023-04-24T09:26:06.402Z,58.38
2023-04-24T09:28:40.039Z,56.00
2023-04-24T09:31:16.814Z,55.28
2023-04-24T09:34:06.442Z,54.02
2023-04-24T09:36:43.685Z,53.58
2023-04-24T09:39:16.623Z,53.74
2023-04-24T09:41:59.744Z,56.57
2023-04-24T09:44:29.174Z,54.87
2023-04-24T09:47:01.760Z,53.44
2023-04-24T09:49:31.713Z,53.86
2023-04-24T09:52:11.078Z,59.73
2023-04-24T09:54:39.420Z,56.18
2023-04-24T09:57:08.979Z,58.85
2023-04-24T09:59:40.272Z,54.32
2023-04-24T10:02:22.086Z,53.10
2023-04-24T10:05:01.093Z,54.43
2023-04-24T10:07:28.846Z,56.56
2023-04-24T10:09:56.768Z,58.37
2023-04-24T10:12:26.071Z,58.52
2023-04-24T10:14:54.322Z,63.60
2023-04-24T10:17:23.106Z,66.37
2023-04-24T10:19:51.386Z,65.62
2023-04-24T10:22:19.384Z,65.38
2023-04-24T10:24:48.495Z,65.28
2023-04-24T10:27:16.658Z,60.59
2023-04-24T10:29:46.086Z,57.80
2023-04-24T10:32:13.622Z,58.97
2023-04-24T10:34:41.113Z,55.68
2023-04-24T10:37:08.456Z,54.89
2023-04-24T10:39:36.489Z,56.37
2023-04-24T10:42:14.653Z,55.43
2023-04-24T10:44:42.193Z,55.53
2023-04-24T10:47:15.748Z,57.24
2023-04-24T10:49:43.592Z,57.54
2023-04-24T10:52:10.972Z,57.90
2023-04-24T10:54:45.727Z,60.60
2023-04-24T10:57:23.377Z,62.61
2023-04-24T11:00:30.441Z,63.16
2023-04-24T11:02:59.017Z,63.76
2023-04-24T11:06:09.746Z,68.26
2023-04-24T11:08:46.696Z,62.74
2023-04-24T11:11:16.278Z,64.91
2023-04-24T11:13:55.801Z,64.79
2023-04-24T11:16:36.535Z,74.02
2023-04-24T11:19:09.239Z,78.09
2023-04-24T11:22:04.109Z,92.89
2023-04-24T11:24:38.181Z,95.99
2023-04-24T11:27:19.127Z,99.27
2023-04-24T11:30:01.233Z,81.50
2023-04-24T11:32:38.674Z,75.86
2023-04-24T11:35:17.801Z,76.10
2023-04-24T11:38:18.799Z,70.65
2023-04-24T11:40:40.550Z,71.18
2023-04-24T11:43:09.729Z,71.54
2023-04-24T11:45:37.162Z,74.59
2023-04-24T11:48:05.208Z,69.04
2023-04-24T11:50:32.665Z,72.65
2023-04-24T11:53:01.548Z,73.33
2023-04-24T11:55:30.484Z,76.86
2023-04-24T11:58:00.550Z,74.13
2023-04-24T12:00:31.951Z,77.45
2023-04-24T12:03:11.844Z,75.21
2023-04-24T12:05:40.772Z,76.76
2023-04-24T12:08:08.544Z,80.29
2023-04-24T12:10:37.047Z,76.95
2023-04-24T12:13:04.465Z,77.48
2023-04-24T12:15:32.287Z,78.86
2023-04-24T12:18:00.427Z,80.17
2023-04-24T12:20:32.259Z,83.11
2023-04-24T12:23:01.889Z,81.72
2023-04-24T12:25:33.322Z,84.89
2023-04-24T12:28:06.948Z,84.24
2023-04-24T12:30:49.670Z,87.33
2023-04-24T12:33:22.228Z,90.15
2023-04-24T12:35:54.491Z,91.49
2023-04-24T12:38:26.796Z,88.00
2023-04-24T12:41:11.313Z,93.06
2023-04-24T12:43:38.928Z,91.80
2023-04-24T12:46:06.968Z,90.27
2023-04-24T12:48:34.550Z,90.64
2023-04-24T12:51:02.724Z,92.85
2023-04-24T12:53:32.245Z,93.86
2023-04-24T12:55:59.824Z,95.97
2023-04-24T12:58:27.191Z,94.56
2023-04-24T13:00:55.330Z,97.25
2023-04-24T13:03:23.750Z,96.62
2023-04-24T13:05:51.246Z,97.22
2023-04-24T13:08:18.536Z,98.56
2023-04-24T13:10:46.542Z,100.00
2023-04-24T13:13:14.103Z,100.00
2023-04-24T13:15:41.456Z,100.00
2023-04-24T13:18:08.938Z,100.00
2023-04-24T13:20:36.680Z,100.00
2023-04-24T13:23:03.948Z,100.00
2023-04-24T13:25:37.245Z,100.00
2023-04-24T13:28:04.572Z,100.00
2023-04-24T13:30:32.506Z,100.00
2023-04-24T13:32:59.877Z,100.00
2023-04-24T13:35:27.288Z,100.00
2023-04-24T13:37:54.503Z,100.00
2023-04-24T13:40:21.898Z,100.00
2023-04-24T13:42:49.323Z,100.00
2023-04-24T13:45:24.812Z,97.34
2023-04-24T13:47:55.001Z,98.11
2023-04-24T13:50:22.980Z,97.18
2023-04-24T13:52:50.435Z,96.58
2023-04-24T13:55:17.950Z,95.48
2023-04-24T13:57:45.093Z,94.89
2023-04-24T14:00:14.398Z,96.80
2023-04-24T14:02:41.851Z,94.28
2023-04-24T14:05:12.097Z,94.16
2023-04-24T14:07:39.569Z,94.93
2023-04-24T14:10:08.343Z,92.24
2023-04-24T14:12:35.750Z,93.41
2023-04-24T14:15:05.587Z,93.87
2023-04-24T14:17:33.109Z,92.92
2023-04-24T14:20:01.627Z,93.78
2023-04-24T14:22:28.909Z,93.35
2023-04-24T14:24:56.105Z,92.08
2023-04-24T14:27:23.530Z,91.20
2023-04-24T14:29:50.905Z,90.93
2023-04-24T14:32:18.544Z,89.98
2023-04-24T14:34:46.076Z,89.11
2023-04-24T14:37:13.616Z,88.04
2023-04-24T14:39:41.167Z,86.91
2023-04-24T14:42:08.438Z,87.29
2023-04-24T14:44:35.966Z,85.08
2023-04-24T14:47:03.343Z,84.69
2023-04-24T14:49:30.834Z,84.73
2023-04-24T14:51:57.970Z,84.90
2023-04-24T14:54:26.179Z,85.85
2023-04-24T14:56:53.543Z,83.99
2023-04-24T14:59:21.053Z,82.92
2023-04-24T15:01:48.320Z,85.53
2023-04-24T15:04:15.981Z,85.17
2023-04-24T15:06:43.638Z,84.63
2023-04-24T15:09:10.973Z,82.56
2023-04-24T15:11:38.428Z,82.18
2023-04-24T15:14:05.732Z,82.49
2023-04-24T15:16:33.522Z,80.74
2023-04-24T15:19:00.876Z,79.55
2023-04-24T15:21:28.199Z,78.35
2023-04-24T15:23:56.216Z,77.50
2023-04-24T15:26:25.478Z,78.99
2023-04-24T15:28:53.278Z,77.36
2023-04-24T15:31:21.439Z,78.22
2023-04-24T15:33:50.713Z,78.02
2023-04-24T15:36:18.743Z,78.81
2023-04-24T15:38:46.434Z,79.24
2023-04-24T15:41:13.658Z,79.47
2023-04-24T15:43:42.281Z,80.67
2023-04-24T15:46:10.866Z,81.63
2023-04-24T15:48:39.961Z,82.46
2023-04-24T15:51:07.186Z,81.85
2023-04-24T15:53:34.712Z,82.80
2023-04-24T15:56:01.976Z,81.65
2023-04-24T15:58:29.554Z,82.47
2023-04-24T16:00:57.061Z,81.01
2023-04-24T16:03:24.956Z,80.89
2023-04-24T16:05:53.634Z,82.55
2023-04-24T16:08:22.472Z,82.72
2023-04-24T16:10:50.295Z,83.44
2023-04-24T16:13:18.852Z,83.72
2023-04-24T16:15:46.616Z,83.77
2023-04-24T16:18:14.057Z,83.75
2023-04-24T16:20:41.337Z,82.86
2023-04-24T16:23:08.659Z,83.24
2023-04-24T16:25:36.238Z,83.44
2023-04-24T16:28:03.877Z,88.78
2023-04-24T16:30:31.845Z,84.80
2023-04-24T16:32:59.405Z,88.39
2023-04-24T16:35:26.914Z,91.01
2023-04-24T16:37:54.077Z,92.45
2023-04-24T16:40:21.445Z,88.95
2023-04-24T16:42:49.002Z,89.66
2023-04-24T16:45:16.332Z,88.28
2023-04-24T16:47:43.668Z,89.14
2023-04-24T16:50:11.598Z,91.35
2023-04-24T16:52:39.758Z,89.62
2023-04-24T16:55:07.754Z,87.15
2023-04-24T16:57:34.964Z,87.21
2023-04-24T17:00:02.439Z,89.35
2023-04-24T17:02:30.005Z,91.06
2023-04-24T17:04:57.567Z,90.71
2023-04-24T17:07:25.912Z,91.43
2023-04-24T17:09:53.421Z,95.09
2023-04-24T17:12:20.728Z,95.11
2023-04-24T17:14:47.969Z,95.57
2023-04-24T17:17:16.399Z,96.84
2023-04-24T17:19:43.855Z,95.30
2023-04-24T17:22:11.100Z,98.25
2023-04-24T17:24:39.130Z,98.41
2023-04-24T17:27:14.663Z,99.31
2023-04-24T17:29:42.836Z,99.20
2023-04-24T17:32:10.433Z,100.00
2023-04-24T17:34:37.871Z,100.00
2023-04-24T17:37:05.441Z,100.00
2023-04-24T17:39:32.710Z,100.00
2023-04-24T17:42:00.176Z,100.00
2023-04-24T17:44:27.671Z,100.00
2023-04-24T17:46:55.001Z,100.00
2023-04-24T17:49:22.292Z,100.00
2023-04-24T17:51:50.324Z,100.00
2023-04-24T17:54:18.381Z,100.00
2023-04-24T17:56:46.467Z,100.00
2023-04-24T17:59:13.988Z,100.00
2023-04-24T18:01:41.272Z,100.00
2023-04-24T18:04:09.306Z,100.00
2023-04-24T18:06:37.814Z,100.00
2023-04-24T18:09:05.436Z,100.00
2023-04-24T18:11:33.146Z,100.00
2023-04-24T18:14:00.621Z,100.00
2023-04-24T18:16:27.876Z,100.00
2023-04-24T18:18:55.488Z,100.00
2023-04-24T18:21:23.886Z,100.00
2023-04-24T18:23:51.393Z,100.00
2023-04-24T18:26:18.797Z,100.00
2023-04-24T18:28:46.343Z,100.00
2023-04-24T18:31:13.967Z,100.00
2023-04-24T18:33:41.450Z,100.00
2023-04-24T18:36:09.015Z,100.00
2023-04-24T18:38:37.009Z,100.00
2023-04-24T18:41:04.839Z,100.00
2023-04-24T18:43:32.258Z,100.00
2023-04-24T18:45:59.464Z,100.00
2023-04-24T18:48:29.799Z,100.00
2023-04-24T18:50:57.733Z,100.00
2023-04-24T18:53:25.089Z,100.00
2023-04-24T18:55:53.153Z,100.00
2023-04-24T18:58:20.432Z,100.00
2023-04-24T19:00:48.042Z,100.00
2023-04-24T19:03:15.708Z,100.00
2023-04-24T19:05:43.192Z,100.00
2023-04-24T19:08:10.702Z,100.00
2023-04-24T19:10:38.096Z,100.00
2023-04-24T19:13:05.908Z,100.00
2023-04-24T19:15:35.021Z,100.00
2023-04-24T19:18:03.654Z,100.00
2023-04-24T19:20:31.055Z,100.00
2023-04-24T19:22:58.545Z,100.00
2023-04-24T19:25:26.374Z,100.00
2023-04-24T19:27:53.868Z,100.00
2023-04-24T19:30:21.404Z,100.00
2023-04-24T19:32:48.725Z,100.00
2023-04-24T19:35:16.229Z,100.00
2023-04-24T19:37:43.701Z,100.00
2023-04-24T19:40:12.921Z,100.00
2023-04-24T19:42:44.328Z,100.00
2023-04-24T19:45:15.318Z,100.00
2023-04-24T19:47:42.871Z,100.00
2023-04-24T19:50:10.364Z,100.00
2023-04-24T19:52:37.765Z,100.00
2023-04-24T19:55:05.715Z,100.00
2023-04-24T19:57:34.810Z,100.00
2023-04-24T20:00:02.042Z,100.00
2023-04-24T20:02:32.364Z,100.00
2023-04-24T20:04:59.957Z,100.00
2023-04-24T20:07:27.386Z,100.00
2023-04-24T20:09:54.652Z,100.00
2023-04-24T20:12:22.183Z,100.00
2023-04-24T20:14:49.732Z,100.00
2023-04-24T20:17:18.172Z,100.00
2023-04-24T20:19:46.469Z,100.00
2023-04-24T20:22:14.144Z,100.00
2023-04-24T20:24:41.721Z,100.00
2023-04-24T20:27:09.167Z,100.00
2023-04-24T20:29:36.475Z,100.00
2023-04-24T20:32:03.890Z,100.00
2023-04-24T20:34:31.645Z,100.00
2023-04-24T20:36:59.273Z,100.00
2023-04-24T20:39:26.833Z,100.00
2023-04-24T20:41:54.075Z,100.00
2023-04-24T20:44:22.017Z,100.00
2023-04-24T20:46:49.330Z,100.00
2023-04-24T20:49:16.985Z,100.00
2023-04-24T20:51:44.222Z,100.00
2023-04-24T20:54:11.514Z,100.00
2023-04-24T20:56:38.803Z,100.00
2023-04-24T20:59:06.168Z,100.00
2023-04-24T21:01:33.636Z,100.00
2023-04-24T21:04:01.010Z,100.00
2023-04-24T21:06:28.253Z,100.00
2023-04-24T21:08:55.556Z,100.00
2023-04-24T21:11:22.818Z,100.00
2023-04-24T21:13:50.433Z,100.00
2023-04-24T21:16:18.224Z,100.00
2023-04-24T21:18:45.755Z,100.00
2023-04-24T21:21:13.236Z,100.00
2023-04-24T21:23:41.031Z,100.00
2023-04-24T21:26:08.749Z,100.00
2023-04-24T21:28:37.160Z,100.00
2023-04-24T21:31:04.632Z,100.00
2023-04-24T21:33:31.880Z,100.00
2023-04-24T21:35:59.221Z,100.00
2023-04-24T21:38:26.452Z,100.00
2023-04-24T21:40:53.712Z,100.00
2023-04-24T21:43:28.057Z,100.00
2023-04-24T21:46:04.932Z,100.00
2023-04-24T21:48:32.226Z,100.00
2023-04-24T21:50:59.634Z,100.00
2023-04-24T21:53:26.833Z,100.00
2023-04-24T21:55:54.139Z,100.00
2023-04-24T21:58:21.361Z,100.00
2023-04-24T22:00:48.692Z,100.00
2023-04-24T22:03:16.972Z,100.00
2023-04-24T22:05:44.384Z,100.00
2023-04-24T22:08:11.688Z,100.00
2023-04-24T22:10:39.024Z,100.00
2023-04-24T22:13:06.387Z,100.00
2023-04-24T22:15:33.616Z,100.00
2023-04-24T22:18:01.414Z,100.00
2023-04-24T22:20:29.238Z,100.00
2023-04-24T22:22:56.392Z,100.00
2023-04-24T22:25:23.700Z,100.00
2023-04-24T22:27:51.050Z,100.00
2023-04-24T22:30:18.678Z,100.00
2023-04-24T22:32:46.121Z,100.00
2023-04-24T22:35:13.390Z,100.00
2023-04-24T22:37:40.728Z,100.00
2023-04-24T22:40:08.736Z,100.00
2023-04-24T22:42:36.295Z,100.00
2023-04-24T22:45:04.630Z,100.00
2023-04-24T22:47:32.065Z,100.00
2023-04-24T22:49:59.455Z,100.00
2023-04-24T22:52:28.966Z,100.00
2023-04-24T22:54:56.294Z,100.00
2023-04-24T22:57:23.738Z,100.00
2023-04-24T22:59:50.989Z,100.00
2023-04-24T23:02:18.383Z,100.00
2023-04-24T23:04:45.696Z,100.00
2023-04-24T23:07:13.014Z,100.00
2023-04-24T23:09:40.407Z,100.00
2023-04-24T23:12:07.807Z,100.00
2023-04-24T23:14:35.154Z,100.00
2023-04-24T23:17:02.579Z,100.00
2023-04-24T23:19:29.998Z,100.00
2023-04-24T23:21:57.332Z,100.00
2023-04-24T23:24:24.661Z,100.00
2023-04-24T23:26:52.092Z,100.00
2023-04-24T23:29:19.395Z,100.00
2023-04-24T23:31:46.774Z,100.00
2023-04-24T23:34:14.345Z,100.00
2023-04-24T23:36:41.706Z,100.00
2023-04-24T23:39:08.987Z,100.00
2023-04-24T23:41:37.677Z,100.00
2023-04-24T23:44:06.063Z,100.00
2023-04-24T23:46:33.386Z,100.00
2023-04-24T23:49:00.581Z,100.00
2023-04-24T23:51:28.091Z,100.00
2023-04-24T23:53:55.512Z,100.00
2023-04-24T23:56:24.476Z,100.00
2023-04-24T23:58:51.782Z,100.00
